createdAt,value
2023-05-01T00:00:33.456Z,678.00
2023-05-01T00:01:33.505Z,685.00
2023-05-01T00:02:33.509Z,696.00
2023-05-01T00:03:33.623Z,665.00
2023-05-01T00:04:33.606Z,694.00
2023-05-01T00:05:33.572Z,681.00
2023-05-01T00:06:33.659Z,690.00
2023-05-01T00:07:33.632Z,680.00
2023-05-01T00:08:33.612Z,688.00
2023-05-01T00:09:33.660Z,679.00
2023-05-01T00:10:33.651Z,689.00
2023-05-01T00:11:33.681Z,687.00
2023-05-01T00:12:33.674Z,684.00
2023-05-01T00:13:33.668Z,678.00
2023-05-01T00:14:33.689Z,680.00
2023-05-01T00:15:33.664Z,676.00
2023-05-01T00:16:33.756Z,681.00
2023-05-01T00:17:33.713Z,691.00
2023-05-01T00:18:33.654Z,674.00
2023-05-01T00:19:33.675Z,679.00
2023-05-01T00:20:33.676Z,687.00
2023-05-01T00:21:33.701Z,678.00
2023-05-01T00:22:33.694Z,669.00
2023-05-01T00:23:33.699Z,683.00
2023-05-01T00:24:33.704Z,678.00
2023-05-01T00:25:33.673Z,682.00
2023-05-01T00:26:33.691Z,681.00
2023-05-01T00:27:33.736Z,679.00
2023-05-01T00:28:33.709Z,685.00
2023-05-01T00:29:33.691Z,671.00
2023-05-01T00:30:33.687Z,678.00
2023-05-01T00:31:33.759Z,676.00
2023-05-01T00:32:33.782Z,683.00
2023-05-01T00:33:33.708Z,680.00
2023-05-01T00:34:33.717Z,683.00
2023-05-01T00:35:33.644Z,669.00
2023-05-01T00:36:33.660Z,679.00
2023-05-01T00:37:33.694Z,680.00
2023-05-01T00:38:33.651Z,679.00
2023-05-01T00:39:33.638Z,677.00
2023-05-01T00:40:33.659Z,679.00
2023-05-01T00:41:33.586Z,676.00
2023-05-01T00:42:33.605Z,666.00
2023-05-01T00:43:33.635Z,674.00
2023-05-01T00:44:33.636Z,681.00
2023-05-01T00:45:33.616Z,676.00
2023-05-01T00:46:33.631Z,680.00
2023-05-01T00:47:33.610Z,676.00
2023-05-01T00:48:33.640Z,672.00
2023-05-01T00:49:33.619Z,677.00
2023-05-01T00:50:33.629Z,674.00
2023-05-01T00:51:33.597Z,678.00
2023-05-01T00:52:33.596Z,667.00
2023-05-01T00:53:33.598Z,679.00
2023-05-01T00:54:33.646Z,674.00
2023-05-01T00:55:33.717Z,671.00
2023-05-01T00:56:33.641Z,670.00
2023-05-01T00:57:33.608Z,673.00
2023-05-01T00:58:33.640Z,670.00
2023-05-01T00:59:34.763Z,665.00
2023-05-01T01:00:33.622Z,668.00
2023-05-01T01:01:33.677Z,670.00
2023-05-01T01:02:33.664Z,671.00
2023-05-01T01:03:33.656Z,664.00
2023-05-01T01:04:33.774Z,667.00
2023-05-01T01:05:33.659Z,669.00
2023-05-01T01:06:33.736Z,667.00
2023-05-01T01:07:33.665Z,663.00
2023-05-01T01:08:33.675Z,664.00
2023-05-01T01:09:33.681Z,664.00
2023-05-01T01:10:33.716Z,667.00
2023-05-01T01:11:33.716Z,666.00
2023-05-01T01:12:33.702Z,670.00
2023-05-01T01:13:33.745Z,665.00
2023-05-01T01:14:33.736Z,665.00
2023-05-01T01:15:33.718Z,666.00
2023-05-01T01:16:33.802Z,665.00
2023-05-01T01:17:33.768Z,668.00
2023-05-01T01:18:33.743Z,668.00
2023-05-01T01:19:33.750Z,668.00
2023-05-01T01:20:33.749Z,663.00
2023-05-01T01:21:33.778Z,668.00
2023-05-01T01:22:33.801Z,665.00
2023-05-01T01:23:33.774Z,664.00
2023-05-01T01:24:33.803Z,664.00
2023-05-01T01:25:33.856Z,662.00
2023-05-01T01:26:33.817Z,664.00
2023-05-01T01:27:33.870Z,664.00
2023-05-01T01:28:33.881Z,663.00
2023-05-01T01:29:33.837Z,663.00
2023-05-01T01:30:33.903Z,663.00
2023-05-01T01:31:34.014Z,662.00
2023-05-01T01:32:33.938Z,662.00
2023-05-01T01:33:33.915Z,664.00
2023-05-01T01:34:33.925Z,663.00
2023-05-01T01:35:33.919Z,664.00
2023-05-01T01:36:33.931Z,664.00
2023-05-01T01:37:33.992Z,662.00
2023-05-01T01:38:33.973Z,660.00
2023-05-01T01:39:34.008Z,661.00
2023-05-01T01:40:33.963Z,664.00
2023-05-01T01:41:34.030Z,663.00
2023-05-01T01:42:34.014Z,660.00
2023-05-01T01:43:34.013Z,661.00
2023-05-01T01:44:34.091Z,661.00
2023-05-01T01:45:34.050Z,658.00
2023-05-01T01:46:34.173Z,661.00
2023-05-01T01:47:34.197Z,662.00
2023-05-01T01:48:34.117Z,663.00
2023-05-01T01:49:34.183Z,661.00
2023-05-01T01:50:34.194Z,659.00
2023-05-01T01:51:34.191Z,661.00
2023-05-01T01:52:34.207Z,664.00
2023-05-01T01:53:34.199Z,660.00
2023-05-01T01:54:34.264Z,660.00
2023-05-01T01:55:34.293Z,662.00
2023-05-01T01:56:34.305Z,660.00
2023-05-01T01:57:34.323Z,662.00
2023-05-01T01:58:34.343Z,660.00
2023-05-01T01:59:34.701Z,660.00
2023-05-01T02:00:34.415Z,658.00
2023-05-01T02:01:34.472Z,656.00
2023-05-01T02:02:34.494Z,658.00
2023-05-01T02:03:34.529Z,659.00
2023-05-01T02:04:34.472Z,658.00
2023-05-01T02:05:34.546Z,657.00
2023-05-01T02:06:34.589Z,657.00
2023-05-01T02:07:34.562Z,659.00
2023-05-01T02:08:34.561Z,662.00
2023-05-01T02:09:34.549Z,658.00
2023-05-01T02:10:34.572Z,659.00
2023-05-01T02:11:34.637Z,659.00
2023-05-01T02:12:34.663Z,658.00
2023-05-01T02:13:34.707Z,658.00
2023-05-01T02:14:34.683Z,658.00
2023-05-01T02:15:34.718Z,659.00
2023-05-01T02:16:34.849Z,658.00
2023-05-01T02:17:34.797Z,658.00
2023-05-01T02:18:34.791Z,659.00
2023-05-01T02:19:34.803Z,658.00
2023-05-01T02:20:34.827Z,658.00
2023-05-01T02:21:34.866Z,658.00
2023-05-01T02:22:34.876Z,660.00
2023-05-01T02:23:34.929Z,657.00
2023-05-01T02:24:34.958Z,654.00
2023-05-01T02:25:34.941Z,659.00
2023-05-01T02:26:35.009Z,658.00
2023-05-01T02:27:34.967Z,659.00
2023-05-01T02:28:35.010Z,657.00
2023-05-01T02:29:35.080Z,657.00
2023-05-01T02:30:35.073Z,659.00
2023-05-01T02:31:35.109Z,656.00
2023-05-01T02:32:35.193Z,660.00
2023-05-01T02:33:35.150Z,655.00
2023-05-01T02:34:35.170Z,657.00
2023-05-01T02:35:35.218Z,657.00
2023-05-01T02:36:35.193Z,659.00
2023-05-01T02:37:35.278Z,658.00
2023-05-01T02:38:35.324Z,656.00
2023-05-01T02:39:35.316Z,658.00
2023-05-01T02:40:35.360Z,655.00
2023-05-01T02:41:35.355Z,659.00
2023-05-01T02:42:35.419Z,657.00
2023-05-01T02:43:35.428Z,657.00
2023-05-01T02:44:35.488Z,656.00
2023-05-01T02:45:35.523Z,657.00
2023-05-01T02:46:35.516Z,655.00
2023-05-01T02:47:35.670Z,656.00
2023-05-01T02:48:35.563Z,656.00
2023-05-01T02:49:35.565Z,654.00
2023-05-01T02:50:35.614Z,656.00
2023-05-01T02:51:35.681Z,655.00
2023-05-01T02:52:35.699Z,656.00
2023-05-01T02:53:35.686Z,654.00
2023-05-01T02:54:35.751Z,656.00
2023-05-01T02:55:35.785Z,656.00
2023-05-01T02:56:35.821Z,656.00
2023-05-01T02:57:35.815Z,659.00
2023-05-01T02:58:35.889Z,656.00
2023-05-01T02:59:35.898Z,656.00
2023-05-01T03:00:35.959Z,656.00
2023-05-01T03:01:36.050Z,657.00
2023-05-01T03:02:36.062Z,655.00
2023-05-01T03:03:36.078Z,655.00
2023-05-01T03:04:36.099Z,656.00
2023-05-01T03:05:36.131Z,659.00
2023-05-01T03:06:36.253Z,655.00
2023-05-01T03:07:36.208Z,653.00
2023-05-01T03:08:36.209Z,654.00
2023-05-01T03:09:36.256Z,658.00
2023-05-01T03:10:36.330Z,655.00
2023-05-01T03:11:36.328Z,655.00
2023-05-01T03:12:36.385Z,658.00
2023-05-01T03:13:36.462Z,657.00
2023-05-01T03:14:36.484Z,655.00
2023-05-01T03:15:36.517Z,657.00
2023-05-01T03:16:36.546Z,655.00
2023-05-01T03:17:36.593Z,654.00
2023-05-01T03:18:36.587Z,654.00
2023-05-01T03:19:36.700Z,656.00
2023-05-01T03:20:36.711Z,654.00
2023-05-01T03:21:36.758Z,655.00
2023-05-01T03:22:36.790Z,656.00
2023-05-01T03:23:36.816Z,658.00
2023-05-01T03:24:36.876Z,652.00
2023-05-01T03:25:36.904Z,654.00
2023-05-01T03:26:36.946Z,656.00
2023-05-01T03:27:36.980Z,655.00
2023-05-01T03:28:37.006Z,654.00
2023-05-01T03:29:37.032Z,651.00
2023-05-01T03:30:37.078Z,655.00
2023-05-01T03:31:37.270Z,658.00
2023-05-01T03:32:37.220Z,654.00
2023-05-01T03:33:37.217Z,653.00
2023-05-01T03:34:37.212Z,657.00
2023-05-01T03:35:37.303Z,656.00
2023-05-01T03:36:37.331Z,656.00
2023-05-01T03:37:37.373Z,657.00
2023-05-01T03:38:37.394Z,656.00
2023-05-01T03:39:37.445Z,656.00
2023-05-01T03:40:37.492Z,660.00
2023-05-01T03:41:37.570Z,657.00
2023-05-01T03:42:37.574Z,657.00
2023-05-01T03:43:37.571Z,658.00
2023-05-01T03:44:37.615Z,654.00
2023-05-01T03:45:37.684Z,657.00
2023-05-01T03:46:37.841Z,656.00
2023-05-01T03:47:37.782Z,655.00
2023-05-01T03:48:37.815Z,656.00
2023-05-01T03:49:37.862Z,658.00
2023-05-01T03:50:37.927Z,655.00
2023-05-01T03:51:37.910Z,655.00
2023-05-01T03:52:37.956Z,654.00
2023-05-01T03:53:38.049Z,659.00
2023-05-01T03:54:38.124Z,659.00
2023-05-01T03:55:38.113Z,656.00
2023-05-01T03:56:38.144Z,653.00
2023-05-01T03:57:38.271Z,658.00
2023-05-01T03:58:38.229Z,654.00
2023-05-01T03:59:38.296Z,655.00
2023-05-01T04:00:38.296Z,655.00
2023-05-01T04:01:38.409Z,656.00
2023-05-01T04:02:38.440Z,652.00
2023-05-01T04:03:38.720Z,648.00
2023-05-01T04:04:38.668Z,635.00
2023-05-01T04:05:38.584Z,622.00
2023-05-01T04:06:38.701Z,611.00
2023-05-01T04:07:38.704Z,598.00
2023-05-01T04:08:38.771Z,589.00
2023-05-01T04:09:38.826Z,576.00
2023-05-01T04:10:38.848Z,561.00
2023-05-01T04:11:38.952Z,551.00
2023-05-01T04:12:38.971Z,543.00
2023-05-01T04:13:39.017Z,537.00
2023-05-01T04:14:38.994Z,520.00
2023-05-01T04:15:39.103Z,512.00
2023-05-01T04:16:39.142Z,502.00
2023-05-01T04:17:39.071Z,500.00
2023-05-01T04:18:39.088Z,503.00
2023-05-01T04:19:39.059Z,502.00
2023-05-01T04:20:39.028Z,503.00
2023-05-01T04:21:39.024Z,500.00
2023-05-01T04:22:39.094Z,500.00
2023-05-01T04:23:39.080Z,500.00
2023-05-01T04:24:39.080Z,500.00
2023-05-01T04:25:39.104Z,502.00
2023-05-01T04:26:39.097Z,500.00
2023-05-01T04:27:39.103Z,500.00
2023-05-01T04:28:39.115Z,503.00
2023-05-01T04:29:39.116Z,506.00
2023-05-01T04:30:39.146Z,503.00
2023-05-01T04:31:39.222Z,502.00
2023-05-01T04:32:39.234Z,503.00
2023-05-01T04:33:39.201Z,503.00
2023-05-01T04:34:39.209Z,504.00
2023-05-01T04:35:39.221Z,505.00
2023-05-01T04:36:39.223Z,505.00
2023-05-01T04:37:39.377Z,506.00
2023-05-01T04:38:39.233Z,506.00
2023-05-01T04:39:39.238Z,507.00
2023-05-01T04:40:39.265Z,504.00
2023-05-01T04:41:39.248Z,505.00
2023-05-01T04:42:39.310Z,505.00
2023-05-01T04:43:39.230Z,508.00
2023-05-01T04:44:39.212Z,508.00
2023-05-01T04:45:39.233Z,506.00
2023-05-01T04:46:39.305Z,511.00
2023-05-01T04:47:39.358Z,509.00
2023-05-01T04:48:39.232Z,515.00
2023-05-01T04:49:39.261Z,511.00
2023-05-01T04:50:39.208Z,515.00
2023-05-01T04:51:39.225Z,514.00
2023-05-01T04:52:39.256Z,518.00
2023-05-01T04:53:39.219Z,516.00
2023-05-01T04:54:39.234Z,518.00
2023-05-01T04:55:39.242Z,520.00
2023-05-01T04:56:39.279Z,522.00
2023-05-01T04:57:39.308Z,524.00
2023-05-01T04:58:39.308Z,520.00
2023-05-01T04:59:39.382Z,524.00
2023-05-01T05:00:39.439Z,527.00
2023-05-01T05:01:39.494Z,528.00
2023-05-01T05:02:39.526Z,525.00
2023-05-01T05:03:39.504Z,527.00
2023-05-01T05:04:39.466Z,526.00
2023-05-01T05:05:39.523Z,528.00
2023-05-01T05:06:39.675Z,530.00
2023-05-01T05:07:39.516Z,537.00
2023-05-01T05:08:39.532Z,531.00
2023-05-01T05:09:39.511Z,533.00
2023-05-01T05:10:39.502Z,536.00
2023-05-01T05:11:39.551Z,537.00
2023-05-01T05:12:39.552Z,540.00
2023-05-01T05:13:39.569Z,540.00
2023-05-01T05:14:39.594Z,545.00
2023-05-01T05:15:39.594Z,539.00
2023-05-01T05:16:39.599Z,540.00
2023-05-01T05:17:39.615Z,543.00
2023-05-01T05:18:39.598Z,544.00
2023-05-01T05:19:39.613Z,545.00
2023-05-01T05:20:39.610Z,548.00
2023-05-01T05:21:39.618Z,551.00
2023-05-01T05:22:39.621Z,550.00
2023-05-01T05:23:39.638Z,546.00
2023-05-01T05:24:39.643Z,549.00
2023-05-01T05:25:39.725Z,549.00
2023-05-01T05:26:39.601Z,553.00
2023-05-01T05:27:39.682Z,554.00
2023-05-01T05:28:39.621Z,556.00
2023-05-01T05:29:39.618Z,552.00
2023-05-01T05:30:39.628Z,557.00
2023-05-01T05:31:39.683Z,554.00
2023-05-01T05:32:39.663Z,559.00
2023-05-01T05:33:39.647Z,558.00
2023-05-01T05:34:39.651Z,554.00
2023-05-01T05:35:39.760Z,562.00
2023-05-01T05:36:39.693Z,564.00
2023-05-01T05:37:39.668Z,563.00
2023-05-01T05:38:39.687Z,564.00
2023-05-01T05:39:39.702Z,565.00
2023-05-01T05:40:39.693Z,566.00
2023-05-01T05:41:39.652Z,566.00
2023-05-01T05:42:39.664Z,565.00
2023-05-01T05:43:39.663Z,563.00
2023-05-01T05:44:39.681Z,561.00
2023-05-01T05:45:39.661Z,565.00
2023-05-01T05:46:39.725Z,568.00
2023-05-01T05:47:39.653Z,568.00
2023-05-01T05:48:39.652Z,568.00
2023-05-01T05:49:39.662Z,564.00
2023-05-01T05:50:39.616Z,571.00
2023-05-01T05:51:39.622Z,569.00
2023-05-01T05:52:39.623Z,566.00
2023-05-01T05:53:39.676Z,574.00
2023-05-01T05:54:39.612Z,570.00
2023-05-01T05:55:39.589Z,568.00
2023-05-01T05:56:39.866Z,566.00
2023-05-01T05:57:39.661Z,570.00
2023-05-01T05:58:39.607Z,569.00
2023-05-01T05:59:39.620Z,567.00
2023-05-01T06:00:39.636Z,569.00
2023-05-01T06:01:39.693Z,569.00
2023-05-01T06:02:39.795Z,571.00
2023-05-01T06:03:39.814Z,566.00
2023-05-01T06:04:39.624Z,570.00
2023-05-01T06:05:39.746Z,571.00
2023-05-01T06:06:39.631Z,571.00
2023-05-01T06:07:39.669Z,575.00
2023-05-01T06:08:39.645Z,574.00
2023-05-01T06:09:39.669Z,573.00
2023-05-01T06:10:39.662Z,573.00
2023-05-01T06:11:39.656Z,572.00
2023-05-01T06:12:41.677Z,571.00
2023-05-01T06:13:40.598Z,571.00
2023-05-01T06:14:39.624Z,572.00
2023-05-01T06:15:39.641Z,574.00
2023-05-01T06:16:39.592Z,575.00
2023-05-01T06:17:39.572Z,575.00
2023-05-01T06:18:39.538Z,577.00
2023-05-01T06:19:39.554Z,575.00
2023-05-01T06:20:39.563Z,576.00
2023-05-01T06:21:39.520Z,576.00
2023-05-01T06:22:39.521Z,572.00
2023-05-01T06:23:39.474Z,577.00
2023-05-01T06:24:39.628Z,577.00
2023-05-01T06:25:39.479Z,577.00
2023-05-01T06:26:39.501Z,574.00
2023-05-01T06:27:39.497Z,575.00
2023-05-01T06:28:39.471Z,577.00
2023-05-01T06:29:39.472Z,580.00
2023-05-01T06:30:39.484Z,579.00
2023-05-01T06:31:39.439Z,579.00
2023-05-01T06:32:39.440Z,584.00
2023-05-01T06:33:39.495Z,579.00
2023-05-01T06:34:39.461Z,581.00
2023-05-01T06:35:39.467Z,583.00
2023-05-01T06:36:39.488Z,577.00
2023-05-01T06:37:39.422Z,583.00
2023-05-01T06:38:39.430Z,581.00
2023-05-01T06:39:39.395Z,582.00
2023-05-01T06:40:39.435Z,580.00
2023-05-01T06:41:39.392Z,579.00
2023-05-01T06:42:39.404Z,585.00
2023-05-01T06:43:39.412Z,581.00
2023-05-01T06:44:39.365Z,582.00
2023-05-01T06:45:39.369Z,583.00
2023-05-01T06:46:39.415Z,580.00
2023-05-01T06:47:39.435Z,578.00
2023-05-01T06:48:39.393Z,588.00
2023-05-01T06:49:39.398Z,579.00
2023-05-01T06:50:39.352Z,584.00
2023-05-01T06:51:39.417Z,580.00
2023-05-01T06:52:39.413Z,580.00
2023-05-01T06:53:39.391Z,583.00
2023-05-01T06:54:39.378Z,580.00
2023-05-01T06:55:39.383Z,580.00
2023-05-01T06:56:39.400Z,584.00
2023-05-01T06:57:39.401Z,583.00
2023-05-01T06:58:39.344Z,583.00
2023-05-01T06:59:39.372Z,582.00
2023-05-01T07:00:39.437Z,588.00
2023-05-01T07:01:39.409Z,582.00
2023-05-01T07:02:39.517Z,584.00
2023-05-01T07:03:39.539Z,585.00
2023-05-01T07:04:40.376Z,581.00
2023-05-01T07:05:39.445Z,589.00
2023-05-01T07:06:39.552Z,585.00
2023-05-01T07:07:47.349Z,587.00
2023-05-01T07:08:40.508Z,587.00
2023-05-01T07:09:39.490Z,588.00
2023-05-01T07:10:41.297Z,588.00
2023-05-01T07:11:39.615Z,590.00
2023-05-01T07:12:39.710Z,589.00
2023-05-01T07:13:39.730Z,594.00
2023-05-01T07:14:39.742Z,595.00
2023-05-01T07:15:39.779Z,590.00
2023-05-01T07:16:39.783Z,592.00
2023-05-01T07:17:39.769Z,592.00
2023-05-01T07:18:39.841Z,588.00
2023-05-01T07:19:39.806Z,590.00
2023-05-01T07:20:39.867Z,588.00
2023-05-01T07:21:39.878Z,595.00
2023-05-01T07:22:39.919Z,595.00
2023-05-01T07:23:40.011Z,594.00
2023-05-01T07:24:39.994Z,592.00
2023-05-01T07:25:40.053Z,594.00
2023-05-01T07:26:40.065Z,593.00
2023-05-01T07:27:40.129Z,597.00
2023-05-01T07:28:40.124Z,598.00
2023-05-01T07:29:40.175Z,592.00
2023-05-01T07:30:40.452Z,594.00
2023-05-01T07:31:40.302Z,603.00
2023-05-01T07:32:40.309Z,599.00
2023-05-01T07:33:40.257Z,595.00
2023-05-01T07:34:40.321Z,603.00
2023-05-01T07:35:40.342Z,603.00
2023-05-01T07:36:40.392Z,600.00
2023-05-01T07:37:40.424Z,596.00
2023-05-01T07:38:40.507Z,598.00
2023-05-01T07:39:40.561Z,600.00
2023-05-01T07:40:40.529Z,600.00
2023-05-01T07:41:40.591Z,602.00
2023-05-01T07:42:40.585Z,598.00
2023-05-01T07:43:40.637Z,598.00
2023-05-01T07:44:40.680Z,599.00
2023-05-01T07:45:40.789Z,603.00
2023-05-01T07:46:40.787Z,597.00
2023-05-01T07:47:40.936Z,604.00
2023-05-01T07:48:40.894Z,600.00
2023-05-01T07:49:40.909Z,600.00
2023-05-01T07:50:40.997Z,600.00
2023-05-01T07:51:41.036Z,599.00
2023-05-01T07:52:41.071Z,605.00
2023-05-01T07:53:41.124Z,598.00
2023-05-01T07:54:41.148Z,600.00
2023-05-01T07:55:41.227Z,603.00
2023-05-01T07:56:41.295Z,601.00
2023-05-01T07:57:41.327Z,596.00
2023-05-01T07:58:41.403Z,602.00
2023-05-01T07:59:41.397Z,601.00
2023-05-01T08:00:41.436Z,598.00
2023-05-01T08:01:41.495Z,598.00
2023-05-01T08:02:41.716Z,599.00
2023-05-01T08:03:41.744Z,603.00
2023-05-01T08:04:42.005Z,601.00
2023-05-01T08:05:41.735Z,597.00
2023-05-01T08:06:41.877Z,601.00
2023-05-01T08:07:41.878Z,600.00
2023-05-01T08:08:41.937Z,599.00
2023-05-01T08:09:42.001Z,597.00
2023-05-01T08:10:42.063Z,597.00
2023-05-01T08:11:42.119Z,597.00
2023-05-01T08:12:42.171Z,598.00
2023-05-01T08:13:42.259Z,597.00
2023-05-01T08:14:42.275Z,597.00
2023-05-01T08:15:42.404Z,601.00
2023-05-01T08:16:42.419Z,599.00
2023-05-01T08:17:42.546Z,600.00
2023-05-01T08:18:42.515Z,599.00
2023-05-01T08:19:42.586Z,597.00
2023-05-01T08:20:42.643Z,595.00
2023-05-01T08:21:42.648Z,598.00
2023-05-01T08:22:42.720Z,597.00
2023-05-01T08:23:42.786Z,603.00
2023-05-01T08:24:42.822Z,601.00
2023-05-01T08:25:42.871Z,599.00
2023-05-01T08:26:42.922Z,600.00
2023-05-01T08:27:42.990Z,599.00
2023-05-01T08:28:43.051Z,602.00
2023-05-01T08:29:43.116Z,599.00
2023-05-01T08:30:43.164Z,603.00
2023-05-01T08:31:44.044Z,599.00
2023-05-01T08:32:43.222Z,601.00
2023-05-01T08:33:43.317Z,603.00
2023-05-01T08:34:43.295Z,604.00
2023-05-01T08:35:43.371Z,603.00
2023-05-01T08:36:43.356Z,601.00
2023-05-01T08:37:43.418Z,602.00
2023-05-01T08:38:43.437Z,604.00
2023-05-01T08:39:43.481Z,606.00
2023-05-01T08:40:43.519Z,603.00
2023-05-01T08:41:43.603Z,605.00
2023-05-01T08:42:43.616Z,604.00
2023-05-01T08:43:43.671Z,603.00
2023-05-01T08:44:43.670Z,608.00
2023-05-01T08:45:43.732Z,604.00
2023-05-01T08:46:43.758Z,605.00
2023-05-01T08:47:43.780Z,605.00
2023-05-01T08:48:43.789Z,604.00
2023-05-01T08:49:43.801Z,606.00
2023-05-01T08:50:43.848Z,604.00
2023-05-01T08:51:43.874Z,605.00
2023-05-01T08:52:43.872Z,606.00
2023-05-01T08:53:43.917Z,607.00
2023-05-01T08:54:43.987Z,605.00
2023-05-01T08:55:43.975Z,605.00
2023-05-01T08:56:44.010Z,605.00
2023-05-01T08:57:44.013Z,603.00
2023-05-01T08:58:44.048Z,606.00
2023-05-01T08:59:44.058Z,605.00
2023-05-01T09:00:44.088Z,609.00
2023-05-01T09:01:44.188Z,606.00
2023-05-01T09:02:44.187Z,606.00
2023-05-01T09:03:44.308Z,607.00
2023-05-01T09:04:44.164Z,609.00
2023-05-01T09:05:44.175Z,610.00
2023-05-01T09:06:44.325Z,609.00
2023-05-01T09:07:44.239Z,612.00
2023-05-01T09:08:44.234Z,611.00
2023-05-01T09:09:44.341Z,611.00
2023-05-01T09:10:44.278Z,611.00
2023-05-01T09:11:44.305Z,610.00
2023-05-01T09:12:44.422Z,612.00
2023-05-01T09:13:44.317Z,611.00
2023-05-01T09:14:44.325Z,613.00
2023-05-01T09:15:44.433Z,613.00
2023-05-01T09:16:44.425Z,613.00
2023-05-01T09:17:44.417Z,612.00
2023-05-01T09:18:44.383Z,613.00
2023-05-01T09:19:44.426Z,616.00
2023-05-01T09:20:44.398Z,616.00
2023-05-01T09:21:44.444Z,613.00
2023-05-01T09:22:44.444Z,613.00
2023-05-01T09:23:44.388Z,615.00
2023-05-01T09:24:44.414Z,614.00
2023-05-01T09:25:44.396Z,615.00
2023-05-01T09:26:44.458Z,616.00
2023-05-01T09:27:44.540Z,616.00
2023-05-01T09:28:44.422Z,614.00
2023-05-01T09:29:44.506Z,616.00
2023-05-01T09:30:44.438Z,618.00
2023-05-01T09:31:44.561Z,619.00
2023-05-01T09:32:44.498Z,617.00
2023-05-01T09:33:44.458Z,617.00
2023-05-01T09:34:44.445Z,619.00
2023-05-01T09:35:44.433Z,622.00
2023-05-01T09:36:44.482Z,617.00
2023-05-01T09:37:45.213Z,616.00
2023-05-01T09:38:44.457Z,620.00
2023-05-01T09:39:44.392Z,620.00
2023-05-01T09:40:44.466Z,620.00
2023-05-01T09:41:44.468Z,615.00
2023-05-01T09:42:44.465Z,620.00
2023-05-01T09:43:44.525Z,620.00
2023-05-01T09:44:44.569Z,617.00
2023-05-01T09:45:44.668Z,621.00
2023-05-01T09:46:44.653Z,618.00
2023-05-01T09:47:44.779Z,623.00
2023-05-01T09:48:44.825Z,621.00
2023-05-01T09:49:44.830Z,619.00
2023-05-01T09:50:44.921Z,621.00
2023-05-01T09:51:45.068Z,624.00
2023-05-01T09:52:45.062Z,619.00
2023-05-01T09:53:45.108Z,621.00
2023-05-01T09:54:45.182Z,620.00
2023-05-01T09:55:45.231Z,613.00
2023-05-01T09:56:45.271Z,622.00
2023-05-01T09:57:45.337Z,622.00
2023-05-01T09:58:45.416Z,623.00
2023-05-01T09:59:45.458Z,624.00
2023-05-01T10:00:45.531Z,618.00
2023-05-01T10:01:45.688Z,618.00
2023-05-01T10:02:45.709Z,620.00
2023-05-01T10:03:45.846Z,621.00
2023-05-01T10:04:45.762Z,620.00
2023-05-01T10:05:45.800Z,624.00
2023-05-01T10:06:45.898Z,625.00
2023-05-01T10:07:45.901Z,624.00
2023-05-01T10:08:45.967Z,628.00
2023-05-01T10:09:46.006Z,632.00
2023-05-01T10:10:46.112Z,620.00
2023-05-01T10:11:46.099Z,629.00
2023-05-01T10:12:46.134Z,623.00
2023-05-01T10:13:46.196Z,617.00
2023-05-01T10:14:46.293Z,628.00
2023-05-01T10:15:46.311Z,626.00
2023-05-01T10:16:46.379Z,625.00
2023-05-01T10:17:46.447Z,625.00
2023-05-01T10:18:46.482Z,626.00
2023-05-01T10:19:46.577Z,619.00
2023-05-01T10:20:46.551Z,624.00
2023-05-01T10:21:46.585Z,631.00
2023-05-01T10:22:46.841Z,624.00
2023-05-01T10:23:46.676Z,619.00
2023-05-01T10:24:46.762Z,626.00
2023-05-01T10:25:46.773Z,627.00
2023-05-01T10:26:46.838Z,627.00
2023-05-01T10:27:46.915Z,629.00
2023-05-01T10:28:46.934Z,628.00
2023-05-01T10:29:46.933Z,626.00
2023-05-01T10:30:47.010Z,627.00
2023-05-01T10:31:47.108Z,626.00
2023-05-01T10:32:47.113Z,632.00
2023-05-01T10:33:47.127Z,631.00
2023-05-01T10:34:47.122Z,627.00
2023-05-01T10:35:47.184Z,621.00
2023-05-01T10:36:47.219Z,630.00
2023-05-01T10:37:47.283Z,634.00
2023-05-01T10:38:47.260Z,620.00
2023-05-01T10:39:47.316Z,628.00
2023-05-01T10:40:47.367Z,628.00
2023-05-01T10:41:47.415Z,628.00
2023-05-01T10:42:47.424Z,625.00
2023-05-01T10:43:47.442Z,617.00
2023-05-01T10:44:47.462Z,626.00
2023-05-01T10:45:47.498Z,625.00
2023-05-01T10:46:47.581Z,634.00
2023-05-01T10:47:47.620Z,623.00
2023-05-01T10:48:47.564Z,624.00
2023-05-01T10:49:47.616Z,624.00
2023-05-01T10:50:47.646Z,625.00
2023-05-01T10:51:47.629Z,630.00
2023-05-01T10:52:47.627Z,628.00
2023-05-01T10:53:47.694Z,623.00
2023-05-01T10:54:47.708Z,623.00
2023-05-01T10:55:47.737Z,630.00
2023-05-01T10:56:47.720Z,631.00
2023-05-01T10:57:47.676Z,622.00
2023-05-01T10:58:47.684Z,625.00
2023-05-01T10:59:47.745Z,636.00
2023-05-01T11:00:47.792Z,626.00
2023-05-01T11:01:47.836Z,626.00
2023-05-01T11:02:47.799Z,627.00
2023-05-01T11:03:47.755Z,622.00
2023-05-01T11:04:47.792Z,630.00
2023-05-01T11:05:47.809Z,624.00
2023-05-01T11:06:47.826Z,618.00
2023-05-01T11:07:47.793Z,632.00
2023-05-01T11:08:47.792Z,625.00
2023-05-01T11:09:47.809Z,622.00
2023-05-01T11:10:47.830Z,626.00
2023-05-01T11:11:47.868Z,621.00
2023-05-01T11:12:47.870Z,622.00
2023-05-01T11:13:47.882Z,621.00
2023-05-01T11:14:47.852Z,620.00
2023-05-01T11:15:47.907Z,635.00
2023-05-01T11:16:48.005Z,622.00
2023-05-01T11:17:47.929Z,629.00
2023-05-01T11:18:47.891Z,625.00
2023-05-01T11:19:47.931Z,622.00
2023-05-01T11:20:47.922Z,629.00
2023-05-01T11:21:47.941Z,628.00
2023-05-01T11:22:47.939Z,630.00
2023-05-01T11:23:47.943Z,625.00
2023-05-01T11:24:47.975Z,627.00
2023-05-01T11:25:47.932Z,626.00
2023-05-01T11:26:47.971Z,623.00
2023-05-01T11:27:48.081Z,629.00
2023-05-01T11:28:47.982Z,624.00
2023-05-01T11:29:47.988Z,627.00
2023-05-01T11:30:47.945Z,627.00
2023-05-01T11:31:48.002Z,628.00
2023-05-01T11:32:47.992Z,631.00
2023-05-01T11:33:47.988Z,625.00
2023-05-01T11:34:47.981Z,628.00
2023-05-01T11:35:47.980Z,629.00
2023-05-01T11:36:47.990Z,628.00
2023-05-01T11:37:47.938Z,631.00
2023-05-01T11:38:48.005Z,633.00
2023-05-01T11:39:47.956Z,633.00
2023-05-01T11:40:47.966Z,632.00
2023-05-01T11:41:48.011Z,628.00
2023-05-01T11:42:47.948Z,630.00
2023-05-01T11:43:48.039Z,636.00
2023-05-01T11:44:47.991Z,630.00
2023-05-01T11:45:48.017Z,633.00
2023-05-01T11:46:48.011Z,637.00
2023-05-01T11:47:48.078Z,634.00
2023-05-01T11:48:47.970Z,640.00
2023-05-01T11:49:47.968Z,635.00
2023-05-01T11:50:47.979Z,637.00
2023-05-01T11:51:47.934Z,638.00
2023-05-01T11:52:47.961Z,637.00
2023-05-01T11:53:47.932Z,637.00
2023-05-01T11:54:47.961Z,638.00
2023-05-01T11:55:47.987Z,640.00
2023-05-01T11:56:47.952Z,634.00
2023-05-01T11:57:47.971Z,640.00
2023-05-01T11:58:47.923Z,636.00
2023-05-01T11:59:48.006Z,640.00
2023-05-01T12:00:48.009Z,638.00
2023-05-01T12:01:47.911Z,638.00
2023-05-01T12:02:48.143Z,643.00
2023-05-01T12:03:48.036Z,638.00
2023-05-01T12:04:48.061Z,636.00
2023-05-01T12:05:47.936Z,639.00
2023-05-01T12:06:48.004Z,639.00
2023-05-01T12:07:47.955Z,646.00
2023-05-01T12:08:47.961Z,638.00
2023-05-01T12:09:47.915Z,638.00
2023-05-01T12:10:47.916Z,639.00
2023-05-01T12:11:48.408Z,637.00
2023-05-01T12:12:47.923Z,642.00
2023-05-01T12:13:47.929Z,639.00
2023-05-01T12:14:47.890Z,641.00
2023-05-01T12:15:47.892Z,646.00
2023-05-01T12:16:48.027Z,642.00
2023-05-01T12:17:47.974Z,642.00
2023-05-01T12:18:47.902Z,642.00
2023-05-01T12:19:47.908Z,644.00
2023-05-01T12:20:47.981Z,638.00
2023-05-01T12:21:47.990Z,640.00
2023-05-01T12:22:48.013Z,640.00
2023-05-01T12:23:48.047Z,638.00
2023-05-01T12:24:48.046Z,639.00
2023-05-01T12:25:48.074Z,641.00
2023-05-01T12:26:48.118Z,644.00
2023-05-01T12:27:48.173Z,639.00
2023-05-01T12:28:48.176Z,641.00